sensor_id;sensor_type;location;lat;lon;timestamp;temperature;humidity
2825;DHT22;1420;51.324;12.344;2023-07-22T00:01:34;15.20;99.90
2825;DHT22;1420;51.324;12.344;2023-07-22T00:04:02;15.00;99.90
2825;DHT22;1420;51.324;12.344;2023-07-22T00:06:29;15.00;99.90
2825;DHT22;1420;51.324;12.344;2023-07-22T00:08:56;14.90;99.90
2825;DHT22;1420;51.324;12.344;2023-07-22T00:11:24;14.60;99.90
2825;DHT22;1420;51.324;12.344;2023-07-22T00:13:51;14.90;99.90
2825;DHT22;1420;51.324;12.344;2023-07-22T00:16:19;15.00;99.90
2825;DHT22;1420;51.324;12.344;2023-07-22T00:18:46;14.60;99.90
2825;DHT22;1420;51.324;12.344;2023-07-22T00:21:13;14.60;99.90
2825;DHT22;1420;51.324;12.344;2023-07-22T00:23:40;14.70;99.90
2825;DHT22;1420;51.324;12.344;2023-07-22T00:26:07;14.50;99.90
2825;DHT22;1420;51.324;12.344;2023-07-22T00:28:35;14.40;99.90
2825;DHT22;1420;51.324;12.344;2023-07-22T00:31:02;14.90;99.90
2825;DHT22;1420;51.324;12.344;2023-07-22T00:33:29;14.90;99.90
2825;DHT22;1420;51.324;12.344;2023-07-22T00:35:56;14.80;99.90
2825;DHT22;1420;51.324;12.344;2023-07-22T00:38:24;14.60;99.90
2825;DHT22;1420;51.324;12.344;2023-07-22T00:40:52;14.50;99.90
2825;DHT22;1420;51.324;12.344;2023-07-22T00:43:20;14.40;99.90
2825;DHT22;1420;51.324;12.344;2023-07-22T00:45:48;14.40;99.90
2825;DHT22;1420;51.324;12.344;2023-07-22T00:48:16;14.60;99.90
2825;DHT22;1420;51.324;12.344;2023-07-22T00:50:44;14.50;99.90
2825;DHT22;1420;51.324;12.344;2023-07-22T00:53:12;14.50;99.90
2825;DHT22;1420;51.324;12.344;2023-07-22T00:55:40;14.50;99.90
2825;DHT22;1420;51.324;12.344;2023-07-22T00:58:07;14.50;99.90
2825;DHT22;1420;51.324;12.344;2023-07-22T01:00:34;14.40;99.90
2825;DHT22;1420;51.324;12.344;2023-07-22T01:03:02;14.40;99.90
2825;DHT22;1420;51.324;12.344;2023-07-22T01:05:29;14.20;99.90
2825;DHT22;1420;51.324;12.344;2023-07-22T01:07:56;14.40;99.90
2825;DHT22;1420;51.324;12.344;2023-07-22T01:10:23;14.20;99.90
2825;DHT22;1420;51.324;12.344;2023-07-22T01:12:51;14.40;99.90
2825;DHT22;1420;51.324;12.344;2023-07-22T01:15:19;14.20;99.90
2825;DHT22;1420;51.324;12.344;2023-07-22T01:17:47;14.10;99.90
2825;DHT22;1420;51.324;12.344;2023-07-22T01:20:15;14.40;99.90
2825;DHT22;1420;51.324;12.344;2023-07-22T01:22:48;14.50;99.90
2825;DHT22;1420;51.324;12.344;2023-07-22T01:25:11;14.40;99.90
2825;DHT22;1420;51.324;12.344;2023-07-22T01:27:39;14.70;99.90
2825;DHT22;1420;51.324;12.344;2023-07-22T01:30:07;14.70;99.90
2825;DHT22;1420;51.324;12.344;2023-07-22T01:32:34;14.60;99.90
2825;DHT22;1420;51.324;12.344;2023-07-22T01:35:01;14.30;99.90
2825;DHT22;1420;51.324;12.344;2023-07-22T01:37:28;14.00;99.90
2825;DHT22;1420;51.324;12.344;2023-07-22T01:39:56;13.90;99.90
2825;DHT22;1420;51.324;12.344;2023-07-22T01:42:23;14.00;99.90
2825;DHT22;1420;51.324;12.344;2023-07-22T01:44:50;13.70;99.90
2825;DHT22;1420;51.324;12.344;2023-07-22T01:47:17;13.80;99.90
2825;DHT22;1420;51.324;12.344;2023-07-22T01:49:44;13.80;99.90
2825;DHT22;1420;51.324;12.344;2023-07-22T01:52:12;13.80;99.90
2825;DHT22;1420;51.324;12.344;2023-07-22T01:54:40;13.80;99.90
2825;DHT22;1420;51.324;12.344;2023-07-22T01:57:08;13.70;99.90
2825;DHT22;1420;51.324;12.344;2023-07-22T01:59:36;14.00;99.90
2825;DHT22;1420;51.324;12.344;2023-07-22T02:02:04;13.90;99.90
2825;DHT22;1420;51.324;12.344;2023-07-22T02:04:31;14.00;99.90
2825;DHT22;1420;51.324;12.344;2023-07-22T02:06:59;13.90;99.90
2825;DHT22;1420;51.324;12.344;2023-07-22T02:09:27;14.10;99.90
2825;DHT22;1420;51.324;12.344;2023-07-22T02:11:55;14.00;99.90
2825;DHT22;1420;51.324;12.344;2023-07-22T02:14:22;13.90;99.90
2825;DHT22;1420;51.324;12.344;2023-07-22T02:16:49;14.00;99.90
2825;DHT22;1420;51.324;12.344;2023-07-22T02:19:17;14.30;99.90
2825;DHT22;1420;51.324;12.344;2023-07-22T02:21:44;14.00;99.90
2825;DHT22;1420;51.324;12.344;2023-07-22T02:24:12;13.90;99.90
2825;DHT22;1420;51.324;12.344;2023-07-22T02:26:38;13.70;99.90
2825;DHT22;1420;51.324;12.344;2023-07-22T02:29:05;14.30;99.90
2825;DHT22;1420;51.324;12.344;2023-07-22T02:31:33;14.20;99.90
2825;DHT22;1420;51.324;12.344;2023-07-22T02:34:01;14.30;99.90
2825;DHT22;1420;51.324;12.344;2023-07-22T02:36:29;14.10;99.90
2825;DHT22;1420;51.324;12.344;2023-07-22T02:38:57;13.90;99.90
2825;DHT22;1420;51.324;12.344;2023-07-22T02:41:25;13.90;99.90
2825;DHT22;1420;51.324;12.344;2023-07-22T02:43:53;13.70;99.90
2825;DHT22;1420;51.324;12.344;2023-07-22T02:46:21;13.70;99.90
2825;DHT22;1420;51.324;12.344;2023-07-22T02:48:48;13.70;99.90
2825;DHT22;1420;51.324;12.344;2023-07-22T02:51:16;13.90;99.90
2825;DHT22;1420;51.324;12.344;2023-07-22T02:53:43;13.90;99.90
2825;DHT22;1420;51.324;12.344;2023-07-22T02:56:10;14.20;99.90
2825;DHT22;1420;51.324;12.344;2023-07-22T02:58:37;14.10;99.90
2825;DHT22;1420;51.324;12.344;2023-07-22T03:01:04;14.00;99.90
2825;DHT22;1420;51.324;12.344;2023-07-22T03:03:32;14.00;99.90
2825;DHT22;1420;51.324;12.344;2023-07-22T03:06:00;14.10;99.90
2825;DHT22;1420;51.324;12.344;2023-07-22T03:08:28;13.90;99.90
2825;DHT22;1420;51.324;12.344;2023-07-22T03:10:56;14.00;99.90
2825;DHT22;1420;51.324;12.344;2023-07-22T03:13:24;13.90;99.90
2825;DHT22;1420;51.324;12.344;2023-07-22T03:15:51;14.00;99.90
2825;DHT22;1420;51.324;12.344;2023-07-22T03:18:19;13.90;99.90
2825;DHT22;1420;51.324;12.344;2023-07-22T03:20:46;14.40;99.90
2825;DHT22;1420;51.324;12.344;2023-07-22T03:23:13;14.40;99.90
2825;DHT22;1420;51.324;12.344;2023-07-22T03:25:40;14.30;99.90
2825;DHT22;1420;51.324;12.344;2023-07-22T03:28:08;14.50;99.90
2825;DHT22;1420;51.324;12.344;2023-07-22T03:30:35;14.20;99.90
2825;DHT22;1420;51.324;12.344;2023-07-22T03:33:02;14.20;99.90
2825;DHT22;1420;51.324;12.344;2023-07-22T03:35:30;14.20;99.90
2825;DHT22;1420;51.324;12.344;2023-07-22T03:37:57;14.20;99.90
2825;DHT22;1420;51.324;12.344;2023-07-22T03:40:24;14.20;99.90
2825;DHT22;1420;51.324;12.344;2023-07-22T03:42:54;14.20;99.90
2825;DHT22;1420;51.324;12.344;2023-07-22T03:45:21;14.20;99.90
2825;DHT22;1420;51.324;12.344;2023-07-22T03:47:52;14.20;99.90
2825;DHT22;1420;51.324;12.344;2023-07-22T03:50:19;14.30;99.90
2825;DHT22;1420;51.324;12.344;2023-07-22T03:52:47;14.40;99.90
2825;DHT22;1420;51.324;12.344;2023-07-22T03:55:15;14.30;99.90
2825;DHT22;1420;51.324;12.344;2023-07-22T03:57:43;14.30;99.90
2825;DHT22;1420;51.324;12.344;2023-07-22T04:00:11;14.10;99.90
2825;DHT22;1420;51.324;12.344;2023-07-22T04:02:38;14.00;99.90
2825;DHT22;1420;51.324;12.344;2023-07-22T04:05:06;14.00;99.90
2825;DHT22;1420;51.324;12.344;2023-07-22T04:07:33;13.90;99.90
2825;DHT22;1420;51.324;12.344;2023-07-22T04:10:02;14.20;99.90
2825;DHT22;1420;51.324;12.344;2023-07-22T04:12:29;14.20;99.90
2825;DHT22;1420;51.324;12.344;2023-07-22T04:14:57;14.00;99.90
2825;DHT22;1420;51.324;12.344;2023-07-22T04:17:24;13.90;99.90
2825;DHT22;1420;51.324;12.344;2023-07-22T04:19:51;14.00;99.90
2825;DHT22;1420;51.324;12.344;2023-07-22T04:22:18;14.00;99.90
2825;DHT22;1420;51.324;12.344;2023-07-22T04:24:45;14.00;99.90
2825;DHT22;1420;51.324;12.344;2023-07-22T04:27:13;14.10;99.90
2825;DHT22;1420;51.324;12.344;2023-07-22T04:29:40;14.20;99.90
2825;DHT22;1420;51.324;12.344;2023-07-22T04:32:07;14.50;99.90
2825;DHT22;1420;51.324;12.344;2023-07-22T04:34:34;14.40;99.90
2825;DHT22;1420;51.324;12.344;2023-07-22T04:37:02;14.20;99.90
2825;DHT22;1420;51.324;12.344;2023-07-22T04:39:29;14.30;99.90
2825;DHT22;1420;51.324;12.344;2023-07-22T04:41:56;14.40;99.90
2825;DHT22;1420;51.324;12.344;2023-07-22T04:44:23;14.40;99.90
2825;DHT22;1420;51.324;12.344;2023-07-22T04:46:51;14.90;99.90
2825;DHT22;1420;51.324;12.344;2023-07-22T04:49:18;15.10;99.90
2825;DHT22;1420;51.324;12.344;2023-07-22T04:51:45;15.00;99.90
2825;DHT22;1420;51.324;12.344;2023-07-22T04:54:12;14.90;99.90
2825;DHT22;1420;51.324;12.344;2023-07-22T04:56:41;15.00;99.90
2825;DHT22;1420;51.324;12.344;2023-07-22T04:59:08;15.10;99.90
2825;DHT22;1420;51.324;12.344;2023-07-22T05:01:36;15.10;99.90
2825;DHT22;1420;51.324;12.344;2023-07-22T05:04:04;15.20;99.90
2825;DHT22;1420;51.324;12.344;2023-07-22T05:06:31;15.20;99.90
2825;DHT22;1420;51.324;12.344;2023-07-22T05:08:58;15.30;99.90
2825;DHT22;1420;51.324;12.344;2023-07-22T05:11:26;15.10;99.90
2825;DHT22;1420;51.324;12.344;2023-07-22T05:13:53;15.10;99.90
2825;DHT22;1420;51.324;12.344;2023-07-22T05:16:20;15.50;99.90
2825;DHT22;1420;51.324;12.344;2023-07-22T05:18:47;15.40;99.90
2825;DHT22;1420;51.324;12.344;2023-07-22T05:21:14;15.60;99.90
2825;DHT22;1420;51.324;12.344;2023-07-22T05:23:42;15.60;99.90
2825;DHT22;1420;51.324;12.344;2023-07-22T05:26:09;15.50;99.90
2825;DHT22;1420;51.324;12.344;2023-07-22T05:28:36;15.50;99.90
2825;DHT22;1420;51.324;12.344;2023-07-22T05:31:03;15.60;99.90
2825;DHT22;1420;51.324;12.344;2023-07-22T05:33:31;15.60;99.90
2825;DHT22;1420;51.324;12.344;2023-07-22T05:35:59;16.00;99.90
2825;DHT22;1420;51.324;12.344;2023-07-22T05:38:27;15.90;99.90
2825;DHT22;1420;51.324;12.344;2023-07-22T05:40:55;15.70;99.90
2825;DHT22;1420;51.324;12.344;2023-07-22T05:43:23;15.70;99.90
2825;DHT22;1420;51.324;12.344;2023-07-22T05:45:50;15.80;99.90
2825;DHT22;1420;51.324;12.344;2023-07-22T05:48:17;16.10;99.90
2825;DHT22;1420;51.324;12.344;2023-07-22T05:50:45;16.30;99.90
2825;DHT22;1420;51.324;12.344;2023-07-22T05:53:13;16.70;99.90
2825;DHT22;1420;51.324;12.344;2023-07-22T05:55:41;17.40;99.90
2825;DHT22;1420;51.324;12.344;2023-07-22T05:58:15;17.80;99.90
2825;DHT22;1420;51.324;12.344;2023-07-22T06:00:37;17.90;99.90
2825;DHT22;1420;51.324;12.344;2023-07-22T06:03:05;18.50;99.90
2825;DHT22;1420;51.324;12.344;2023-07-22T06:05:33;18.90;99.90
2825;DHT22;1420;51.324;12.344;2023-07-22T06:08:01;19.20;99.90
2825;DHT22;1420;51.324;12.344;2023-07-22T06:10:29;19.50;99.90
2825;DHT22;1420;51.324;12.344;2023-07-22T06:12:57;19.40;99.90
2825;DHT22;1420;51.324;12.344;2023-07-22T06:15:24;19.30;99.90
2825;DHT22;1420;51.324;12.344;2023-07-22T06:17:51;19.60;99.90
2825;DHT22;1420;51.324;12.344;2023-07-22T06:20:19;20.10;99.90
2825;DHT22;1420;51.324;12.344;2023-07-22T06:22:47;20.30;99.90
2825;DHT22;1420;51.324;12.344;2023-07-22T06:25:15;20.00;99.90
2825;DHT22;1420;51.324;12.344;2023-07-22T06:27:42;19.90;99.90
2825;DHT22;1420;51.324;12.344;2023-07-22T06:30:09;20.50;99.90
2825;DHT22;1420;51.324;12.344;2023-07-22T06:32:37;20.80;99.90
2825;DHT22;1420;51.324;12.344;2023-07-22T06:35:05;20.70;99.90
2825;DHT22;1420;51.324;12.344;2023-07-22T06:37:32;20.40;99.90
2825;DHT22;1420;51.324;12.344;2023-07-22T06:39:59;20.30;99.90
2825;DHT22;1420;51.324;12.344;2023-07-22T06:42:27;21.10;97.50
2825;DHT22;1420;51.324;12.344;2023-07-22T06:44:55;21.30;94.40
2825;DHT22;1420;51.324;12.344;2023-07-22T06:47:22;21.30;94.00
2825;DHT22;1420;51.324;12.344;2023-07-22T06:49:50;21.40;93.10
2825;DHT22;1420;51.324;12.344;2023-07-22T06:52:18;21.50;91.90
2825;DHT22;1420;51.324;12.344;2023-07-22T06:54:45;21.40;91.80
2825;DHT22;1420;51.324;12.344;2023-07-22T06:57:13;21.90;89.50
2825;DHT22;1420;51.324;12.344;2023-07-22T06:59:40;22.00;83.60
2825;DHT22;1420;51.324;12.344;2023-07-22T07:02:08;21.90;81.30
2825;DHT22;1420;51.324;12.344;2023-07-22T07:04:36;22.00;80.40
2825;DHT22;1420;51.324;12.344;2023-07-22T07:07:03;21.90;80.00
2825;DHT22;1420;51.324;12.344;2023-07-22T07:09:30;21.60;80.40
2825;DHT22;1420;51.324;12.344;2023-07-22T07:11:57;21.80;76.00
2825;DHT22;1420;51.324;12.344;2023-07-22T07:14:25;23.00;71.40
2825;DHT22;1420;51.324;12.344;2023-07-22T07:16:53;22.90;71.60
2825;DHT22;1420;51.324;12.344;2023-07-22T07:19:20;23.10;72.00
2825;DHT22;1420;51.324;12.344;2023-07-22T07:21:47;22.90;69.20
2825;DHT22;1420;51.324;12.344;2023-07-22T07:24:15;23.50;64.70
2825;DHT22;1420;51.324;12.344;2023-07-22T07:26:43;22.50;63.80
2825;DHT22;1420;51.324;12.344;2023-07-22T07:29:10;22.40;63.80
2825;DHT22;1420;51.324;12.344;2023-07-22T07:31:38;22.40;62.70
2825;DHT22;1420;51.324;12.344;2023-07-22T07:34:05;21.80;65.80
2825;DHT22;1420;51.324;12.344;2023-07-22T07:36:33;21.80;67.70
2825;DHT22;1420;51.324;12.344;2023-07-22T07:39:00;22.30;60.00
2825;DHT22;1420;51.324;12.344;2023-07-22T07:41:28;22.40;60.20
2825;DHT22;1420;51.324;12.344;2023-07-22T07:43:55;22.30;59.80
2825;DHT22;1420;51.324;12.344;2023-07-22T07:46:24;22.80;58.30
2825;DHT22;1420;51.324;12.344;2023-07-22T07:48:52;22.50;56.10
2825;DHT22;1420;51.324;12.344;2023-07-22T07:51:19;22.50;55.90
2825;DHT22;1420;51.324;12.344;2023-07-22T07:53:46;23.10;54.60
2825;DHT22;1420;51.324;12.344;2023-07-22T07:56:14;23.20;54.50
2825;DHT22;1420;51.324;12.344;2023-07-22T07:58:42;23.30;55.90
2825;DHT22;1420;51.324;12.344;2023-07-22T08:01:09;23.30;55.60
2825;DHT22;1420;51.324;12.344;2023-07-22T08:03:37;22.90;53.80
2825;DHT22;1420;51.324;12.344;2023-07-22T08:06:04;23.10;52.80
2825;DHT22;1420;51.324;12.344;2023-07-22T08:08:32;22.80;52.50
2825;DHT22;1420;51.324;12.344;2023-07-22T08:11:00;22.70;52.40
2825;DHT22;1420;51.324;12.344;2023-07-22T08:13:28;23.80;51.00
2825;DHT22;1420;51.324;12.344;2023-07-22T08:15:55;23.80;51.30
2825;DHT22;1420;51.324;12.344;2023-07-22T08:18:22;24.10;51.30
2825;DHT22;1420;51.324;12.344;2023-07-22T08:20:51;23.80;50.20
2825;DHT22;1420;51.324;12.344;2023-07-22T08:23:18;23.80;53.00
2825;DHT22;1420;51.324;12.344;2023-07-22T08:25:45;23.70;52.40
2825;DHT22;1420;51.324;12.344;2023-07-22T08:28:13;23.20;54.20
2825;DHT22;1420;51.324;12.344;2023-07-22T08:30:40;23.10;54.10
2825;DHT22;1420;51.324;12.344;2023-07-22T08:33:09;23.60;55.00
2825;DHT22;1420;51.324;12.344;2023-07-22T08:35:36;23.50;54.50
2825;DHT22;1420;51.324;12.344;2023-07-22T08:38:04;23.70;54.30
2825;DHT22;1420;51.324;12.344;2023-07-22T08:40:36;23.60;54.20
2825;DHT22;1420;51.324;12.344;2023-07-22T08:43:03;24.30;52.40
2825;DHT22;1420;51.324;12.344;2023-07-22T08:45:32;23.50;52.00
2825;DHT22;1420;51.324;12.344;2023-07-22T08:47:59;23.50;52.00
2825;DHT22;1420;51.324;12.344;2023-07-22T08:50:29;23.90;53.10
2825;DHT22;1420;51.324;12.344;2023-07-22T08:52:53;23.50;51.80
2825;DHT22;1420;51.324;12.344;2023-07-22T08:55:21;23.60;52.80
2825;DHT22;1420;51.324;12.344;2023-07-22T08:57:49;24.40;52.40
2825;DHT22;1420;51.324;12.344;2023-07-22T09:00:17;24.30;51.40
2825;DHT22;1420;51.324;12.344;2023-07-22T09:02:44;24.20;51.30
2825;DHT22;1420;51.324;12.344;2023-07-22T09:05:11;24.30;52.50
2825;DHT22;1420;51.324;12.344;2023-07-22T09:07:38;24.40;51.10
2825;DHT22;1420;51.324;12.344;2023-07-22T09:10:07;23.70;50.60
2825;DHT22;1420;51.324;12.344;2023-07-22T09:12:34;23.60;50.50
2825;DHT22;1420;51.324;12.344;2023-07-22T09:15:04;23.90;52.70
2825;DHT22;1420;51.324;12.344;2023-07-22T09:17:31;24.30;51.80
2825;DHT22;1420;51.324;12.344;2023-07-22T09:19:59;24.80;51.50
2825;DHT22;1420;51.324;12.344;2023-07-22T09:22:27;24.80;48.40
2825;DHT22;1420;51.324;12.344;2023-07-22T09:25:01;24.80;48.40
2825;DHT22;1420;51.324;12.344;2023-07-22T09:27:36;24.40;49.50
2825;DHT22;1420;51.324;12.344;2023-07-22T09:30:04;24.60;49.10
2825;DHT22;1420;51.324;12.344;2023-07-22T09:32:35;24.80;47.50
2825;DHT22;1420;51.324;12.344;2023-07-22T09:35:04;24.40;48.40
2825;DHT22;1420;51.324;12.344;2023-07-22T09:37:39;24.30;50.00
2825;DHT22;1420;51.324;12.344;2023-07-22T09:40:13;24.60;49.50
2825;DHT22;1420;51.324;12.344;2023-07-22T09:42:40;24.60;48.50
2825;DHT22;1420;51.324;12.344;2023-07-22T09:45:07;23.90;48.50
2825;DHT22;1420;51.324;12.344;2023-07-22T09:47:41;24.30;47.40
2825;DHT22;1420;51.324;12.344;2023-07-22T09:50:10;24.50;47.60
2825;DHT22;1420;51.324;12.344;2023-07-22T09:52:40;24.60;47.40
2825;DHT22;1420;51.324;12.344;2023-07-22T09:55:04;24.30;45.50
2825;DHT22;1420;51.324;12.344;2023-07-22T09:57:31;24.20;45.20
2825;DHT22;1420;51.324;12.344;2023-07-22T10:02:33;24.20;46.90
2825;DHT22;1420;51.324;12.344;2023-07-22T10:05:02;24.80;46.20
2825;DHT22;1420;51.324;12.344;2023-07-22T10:07:30;24.90;43.60
2825;DHT22;1420;51.324;12.344;2023-07-22T10:09:57;24.20;47.00
2825;DHT22;1420;51.324;12.344;2023-07-22T10:12:25;24.10;46.80
2825;DHT22;1420;51.324;12.344;2023-07-22T10:14:53;24.40;45.20
2825;DHT22;1420;51.324;12.344;2023-07-22T10:17:19;24.30;45.80
2825;DHT22;1420;51.324;12.344;2023-07-22T10:19:47;23.50;46.80
2825;DHT22;1420;51.324;12.344;2023-07-22T10:22:14;23.50;46.70
2825;DHT22;1420;51.324;12.344;2023-07-22T10:24:41;23.40;48.30
2825;DHT22;1420;51.324;12.344;2023-07-22T10:27:09;24.10;46.60
2825;DHT22;1420;51.324;12.344;2023-07-22T10:29:36;24.50;44.00
2825;DHT22;1420;51.324;12.344;2023-07-22T10:32:04;24.40;44.90
2825;DHT22;1420;51.324;12.344;2023-07-22T10:34:31;24.60;45.20
2825;DHT22;1420;51.324;12.344;2023-07-22T10:36:58;24.30;45.00
2825;DHT22;1420;51.324;12.344;2023-07-22T10:39:26;24.00;43.50
2825;DHT22;1420;51.324;12.344;2023-07-22T10:42:00;24.00;45.10
2825;DHT22;1420;51.324;12.344;2023-07-22T10:44:27;23.80;44.90
2825;DHT22;1420;51.324;12.344;2023-07-22T10:46:57;23.50;46.60
2825;DHT22;1420;51.324;12.344;2023-07-22T10:49:24;23.50;46.60
2825;DHT22;1420;51.324;12.344;2023-07-22T10:51:51;23.20;45.30
2825;DHT22;1420;51.324;12.344;2023-07-22T10:54:32;23.40;44.40
2825;DHT22;1420;51.324;12.344;2023-07-22T10:57:02;23.70;46.30
2825;DHT22;1420;51.324;12.344;2023-07-22T10:59:31;23.70;44.90
2825;DHT22;1420;51.324;12.344;2023-07-22T11:01:56;23.80;42.80
2825;DHT22;1420;51.324;12.344;2023-07-22T11:04:24;23.60;45.10
2825;DHT22;1420;51.324;12.344;2023-07-22T11:06:59;23.50;45.10
2825;DHT22;1420;51.324;12.344;2023-07-22T11:09:34;23.30;44.30
2825;DHT22;1420;51.324;12.344;2023-07-22T11:12:04;23.20;44.20
2825;DHT22;1420;51.324;12.344;2023-07-22T11:14:34;23.10;46.40
2825;DHT22;1420;51.324;12.344;2023-07-22T11:17:02;23.20;46.70
2825;DHT22;1420;51.324;12.344;2023-07-22T11:19:28;23.70;43.30
2825;DHT22;1420;51.324;12.344;2023-07-22T11:21:55;23.70;44.30
2825;DHT22;1420;51.324;12.344;2023-07-22T11:24:23;23.90;42.90
2825;DHT22;1420;51.324;12.344;2023-07-22T11:26:50;23.50;45.00
2825;DHT22;1420;51.324;12.344;2023-07-22T11:29:17;23.70;43.30
2825;DHT22;1420;51.324;12.344;2023-07-22T11:31:45;23.30;44.20
2825;DHT22;1420;51.324;12.344;2023-07-22T11:34:13;23.30;44.20
2825;DHT22;1420;51.324;12.344;2023-07-22T11:36:40;23.50;44.80
2825;DHT22;1420;51.324;12.344;2023-07-22T11:39:08;23.20;46.00
2825;DHT22;1420;51.324;12.344;2023-07-22T11:41:34;23.50;43.70
2825;DHT22;1420;51.324;12.344;2023-07-22T11:44:02;23.70;44.30
2825;DHT22;1420;51.324;12.344;2023-07-22T11:46:29;23.30;44.40
2825;DHT22;1420;51.324;12.344;2023-07-22T11:48:56;23.30;43.80
2825;DHT22;1420;51.324;12.344;2023-07-22T11:51:24;23.10;44.00
2825;DHT22;1420;51.324;12.344;2023-07-22T11:53:51;23.50;44.20
2825;DHT22;1420;51.324;12.344;2023-07-22T11:56:32;23.40;43.70
2825;DHT22;1420;51.324;12.344;2023-07-22T11:59:00;23.30;45.10
2825;DHT22;1420;51.324;12.344;2023-07-22T12:01:31;23.20;44.50
2825;DHT22;1420;51.324;12.344;2023-07-22T12:03:55;23.00;44.20
2825;DHT22;1420;51.324;12.344;2023-07-22T12:06:26;23.00;44.20
2825;DHT22;1420;51.324;12.344;2023-07-22T12:08:52;23.10;45.80
2825;DHT22;1420;51.324;12.344;2023-07-22T12:11:20;23.00;45.60
2825;DHT22;1420;51.324;12.344;2023-07-22T12:13:49;23.10;45.40
2825;DHT22;1420;51.324;12.344;2023-07-22T12:16:20;23.00;45.40
2825;DHT22;1420;51.324;12.344;2023-07-22T12:18:44;23.20;44.00
2825;DHT22;1420;51.324;12.344;2023-07-22T12:21:12;23.30;45.90
2825;DHT22;1420;51.324;12.344;2023-07-22T12:23:39;23.30;45.90
2825;DHT22;1420;51.324;12.344;2023-07-22T12:26:06;23.30;44.90
2825;DHT22;1420;51.324;12.344;2023-07-22T12:28:33;23.40;43.30
2825;DHT22;1420;51.324;12.344;2023-07-22T12:31:01;23.50;44.00
2825;DHT22;1420;51.324;12.344;2023-07-22T12:33:29;23.50;43.90
2825;DHT22;1420;51.324;12.344;2023-07-22T12:35:56;23.40;43.20
2825;DHT22;1420;51.324;12.344;2023-07-22T12:38:23;23.50;42.10
2825;DHT22;1420;51.324;12.344;2023-07-22T12:40:50;23.40;43.00
2825;DHT22;1420;51.324;12.344;2023-07-22T12:43:17;23.40;43.50
2825;DHT22;1420;51.324;12.344;2023-07-22T12:45:45;23.70;44.10
2825;DHT22;1420;51.324;12.344;2023-07-22T12:48:13;23.70;43.00
2825;DHT22;1420;51.324;12.344;2023-07-22T12:50:40;23.60;42.80
2825;DHT22;1420;51.324;12.344;2023-07-22T12:53:08;24.00;43.50
2825;DHT22;1420;51.324;12.344;2023-07-22T12:55:36;24.00;43.90
2825;DHT22;1420;51.324;12.344;2023-07-22T12:58:03;23.90;43.80
2825;DHT22;1420;51.324;12.344;2023-07-22T13:00:30;23.90;44.90
2825;DHT22;1420;51.324;12.344;2023-07-22T13:02:57;24.00;40.90
2825;DHT22;1420;51.324;12.344;2023-07-22T13:05:25;23.80;41.00
2825;DHT22;1420;51.324;12.344;2023-07-22T13:07:53;23.90;42.00
2825;DHT22;1420;51.324;12.344;2023-07-22T13:10:20;23.90;42.10
2825;DHT22;1420;51.324;12.344;2023-07-22T13:12:47;23.90;42.40
2825;DHT22;1420;51.324;12.344;2023-07-22T13:15:14;24.20;42.60
2825;DHT22;1420;51.324;12.344;2023-07-22T13:17:42;23.90;41.30
2825;DHT22;1420;51.324;12.344;2023-07-22T13:20:10;23.80;41.10
2825;DHT22;1420;51.324;12.344;2023-07-22T13:22:38;24.00;42.00
2825;DHT22;1420;51.324;12.344;2023-07-22T13:25:06;24.10;39.60
2825;DHT22;1420;51.324;12.344;2023-07-22T13:27:33;23.90;40.90
2825;DHT22;1420;51.324;12.344;2023-07-22T13:30:01;23.80;41.10
2825;DHT22;1420;51.324;12.344;2023-07-22T13:32:29;23.90;40.30
2825;DHT22;1420;51.324;12.344;2023-07-22T13:34:56;23.80;40.30
2825;DHT22;1420;51.324;12.344;2023-07-22T13:37:23;23.90;41.90
2825;DHT22;1420;51.324;12.344;2023-07-22T13:39:51;24.10;39.50
2825;DHT22;1420;51.324;12.344;2023-07-22T13:42:19;24.20;40.30
2825;DHT22;1420;51.324;12.344;2023-07-22T13:44:46;24.10;40.20
2825;DHT22;1420;51.324;12.344;2023-07-22T13:47:13;24.30;41.00
2825;DHT22;1420;51.324;12.344;2023-07-22T13:49:40;24.60;40.50
2825;DHT22;1420;51.324;12.344;2023-07-22T13:52:07;24.50;38.80
2825;DHT22;1420;51.324;12.344;2023-07-22T13:54:35;24.60;39.40
2825;DHT22;1420;51.324;12.344;2023-07-22T13:57:02;24.50;37.30
2825;DHT22;1420;51.324;12.344;2023-07-22T13:59:29;24.50;39.10
2825;DHT22;1420;51.324;12.344;2023-07-22T14:01:57;24.40;38.80
2825;DHT22;1420;51.324;12.344;2023-07-22T14:04:24;24.40;38.70
2825;DHT22;1420;51.324;12.344;2023-07-22T14:06:51;24.40;39.30
2825;DHT22;1420;51.324;12.344;2023-07-22T14:09:19;24.40;38.90
2825;DHT22;1420;51.324;12.344;2023-07-22T14:11:46;24.60;39.30
2825;DHT22;1420;51.324;12.344;2023-07-22T14:14:13;24.70;39.50
2825;DHT22;1420;51.324;12.344;2023-07-22T14:16:40;24.80;38.30
2825;DHT22;1420;51.324;12.344;2023-07-22T14:19:08;24.60;38.70
2825;DHT22;1420;51.324;12.344;2023-07-22T14:21:36;24.60;38.60
2825;DHT22;1420;51.324;12.344;2023-07-22T14:24:03;24.70;38.60
2825;DHT22;1420;51.324;12.344;2023-07-22T14:26:30;24.40;39.10
2825;DHT22;1420;51.324;12.344;2023-07-22T14:28:57;24.40;38.20
2825;DHT22;1420;51.324;12.344;2023-07-22T14:31:25;24.00;40.20
2825;DHT22;1420;51.324;12.344;2023-07-22T14:33:53;24.10;37.80
2825;DHT22;1420;51.324;12.344;2023-07-22T14:36:20;24.10;37.80
2825;DHT22;1420;51.324;12.344;2023-07-22T14:38:48;24.30;40.20
2825;DHT22;1420;51.324;12.344;2023-07-22T14:41:15;24.30;38.10
2825;DHT22;1420;51.324;12.344;2023-07-22T14:43:42;24.20;39.20
2825;DHT22;1420;51.324;12.344;2023-07-22T14:46:09;24.50;38.30
2825;DHT22;1420;51.324;12.344;2023-07-22T14:48:37;24.60;39.30
2825;DHT22;1420;51.324;12.344;2023-07-22T14:51:04;24.80;37.60
2825;DHT22;1420;51.324;12.344;2023-07-22T14:53:32;24.80;37.80
2825;DHT22;1420;51.324;12.344;2023-07-22T14:55:59;24.60;37.40
2825;DHT22;1420;51.324;12.344;2023-07-22T14:58:26;24.60;37.00
2825;DHT22;1420;51.324;12.344;2023-07-22T15:00:53;24.80;36.40
2825;DHT22;1420;51.324;12.344;2023-07-22T15:03:21;24.40;37.90
2825;DHT22;1420;51.324;12.344;2023-07-22T15:05:48;24.50;36.30
2825;DHT22;1420;51.324;12.344;2023-07-22T15:08:15;24.50;38.50
2825;DHT22;1420;51.324;12.344;2023-07-22T15:10:43;24.50;36.30
2825;DHT22;1420;51.324;12.344;2023-07-22T15:13:10;24.40;36.80
2825;DHT22;1420;51.324;12.344;2023-07-22T15:15:37;24.40;36.50
2825;DHT22;1420;51.324;12.344;2023-07-22T15:18:05;24.10;35.70
2825;DHT22;1420;51.324;12.344;2023-07-22T15:20:32;24.10;36.90
2825;DHT22;1420;51.324;12.344;2023-07-22T15:22:59;24.20;37.50
2825;DHT22;1420;51.324;12.344;2023-07-22T15:25:26;24.40;37.90
2825;DHT22;1420;51.324;12.344;2023-07-22T15:27:54;24.10;37.90
2825;DHT22;1420;51.324;12.344;2023-07-22T15:30:22;24.10;38.20
2825;DHT22;1420;51.324;12.344;2023-07-22T15:32:49;24.20;37.00
2825;DHT22;1420;51.324;12.344;2023-07-22T15:35:16;24.20;36.60
2825;DHT22;1420;51.324;12.344;2023-07-22T15:37:43;24.40;37.10
2825;DHT22;1420;51.324;12.344;2023-07-22T15:40:10;24.30;38.60
2825;DHT22;1420;51.324;12.344;2023-07-22T15:42:38;24.30;39.10
2825;DHT22;1420;51.324;12.344;2023-07-22T15:45:05;24.40;37.60
2825;DHT22;1420;51.324;12.344;2023-07-22T15:47:32;24.20;36.90
2825;DHT22;1420;51.324;12.344;2023-07-22T15:50:00;24.30;38.20